Check out our new PWSWeather beta!
PWSweather.com
Personal Weather Stations
Station Observations
79674
AfterstegDE 79674

AfterstegDE 79674

Lat: 47.84344, Lon: 7.92844

Elevation: 809

Station Type: Davis Vantage 2 Aktive

www.wetter-aftersteg.de

High Low Average
Temperature 43.0°F6.1°C 38.1°F3.4°C 40.2°F4.6°C
Dew Point 39.7°F4.3°C 35.2°F1.8°C 37.8°F3.2°C
Winds 8.9 mph 14.3 kmh Calm Calm 4.0 mph S6.4 kmh S
Wind Gusts 21.9 mph35.2 kmh -- 3.0 mph4.8 kmh
Humidity 94% 87% 91%
Pressure 30.17 in1021.7 mb 29.98 in1015.2 mb -
Precipitation 1.22 in31.0 mm - -
Hour Temp Dew Point Humidity Winds Wind Gusts Pressure Precip Precip Rate Daily Precip Total
12:02 AM 43.2°F6.2°C 39.2°F4.0°C 86% 4.9 mph E7.9 kmh E 6.9 mph11.1 kmh 30.12 in1020.0 mb - 0.00 in0.0 mm 0.01 in0.3 mm
12:07 AM 43.2°F6.2°C 39.2°F4.0°C 86% 4.9 mph SE7.9 kmh SE 4.0 mph6.4 kmh 30.12 in1020.0 mb - 0.00 in0.0 mm 0.01 in0.3 mm
12:12 AM 43.0°F6.1°C 39.0°F3.9°C 86% 4.9 mph S7.9 kmh S -- 30.12 in1020.0 mb - 0.00 in0.0 mm 0.00 in0.0 mm
12:17 AM 43.2°F6.2°C 39.2°F4.0°C 86% 4.0 mph SSE6.4 kmh SSE 2.9 mph4.7 kmh 30.12 in1020.0 mb - 0.00 in0.0 mm 0.00 in0.0 mm
12:22 AM 43.2°F6.2°C 39.2°F4.0°C 86% 4.9 mph SSE7.9 kmh SSE 4.0 mph6.4 kmh 30.12 in1020.0 mb - 0.00 in0.0 mm 0.00 in0.0 mm
12:27 AM 43.2°F6.2°C 39.2°F4.0°C 86% 6.0 mph SE9.7 kmh SE 0.9 mph1.4 kmh 30.11 in1019.6 mb - 0.00 in0.0 mm 0.00 in0.0 mm
12:32 AM 43.2°F6.2°C 39.2°F4.0°C 86% 4.9 mph SSE7.9 kmh SSE -- 30.11 in1019.6 mb - 0.00 in0.0 mm 0.00 in0.0 mm
12:37 AM 43.2°F6.2°C 39.2°F4.0°C 86% 2.9 mph SSE4.7 kmh SSE 10.1 mph16.3 kmh 30.11 in1019.6 mb - 0.00 in0.0 mm 0.00 in0.0 mm
12:42 AM 43.2°F6.2°C 39.2°F4.0°C 86% 4.0 mph ESE6.4 kmh ESE -- 30.11 in1019.6 mb - 0.00 in0.0 mm 0.00 in0.0 mm
12:47 AM 43.2°F6.2°C 39.2°F4.0°C 86% 4.9 mph SE7.9 kmh SE 4.0 mph6.4 kmh 30.11 in1019.6 mb - 0.00 in0.0 mm 0.00 in0.0 mm
12:52 AM 43.2°F6.2°C 39.6°F4.2°C 87% 4.0 mph SE6.4 kmh SE 6.0 mph9.7 kmh 30.11 in1019.6 mb - 0.00 in0.0 mm 0.00 in0.0 mm
12:57 AM 43.0°F6.1°C 39.4°F4.1°C 87% 4.0 mph ESE6.4 kmh ESE 4.0 mph6.4 kmh 30.10 in1019.3 mb - 0.00 in0.0 mm 0.00 in0.0 mm
01:02 AM 43.0°F6.1°C 39.4°F4.1°C 87% 2.9 mph SE4.7 kmh SE 6.9 mph11.1 kmh 30.10 in1019.3 mb - 0.00 in0.0 mm 0.00 in0.0 mm
01:07 AM 42.8°F6.0°C 39.2°F4.0°C 87% 4.0 mph SE6.4 kmh SE 2.9 mph4.7 kmh 30.10 in1019.3 mb - 0.06 in1.5 mm 0.06 in1.5 mm
01:12 AM 42.6°F5.9°C 39.4°F4.1°C 88% 4.0 mph SE6.4 kmh SE 2.0 mph3.2 kmh 30.10 in1019.3 mb - 0.09 in2.3 mm 0.02 in0.5 mm
01:17 AM 42.6°F5.9°C 39.4°F4.1°C 88% 4.0 mph SE6.4 kmh SE 6.9 mph11.1 kmh 30.10 in1019.3 mb - 0.09 in2.3 mm 0.03 in0.8 mm
01:22 AM 42.6°F5.9°C 39.4°F4.1°C 88% 6.0 mph E9.7 kmh E 6.9 mph11.1 kmh 30.10 in1019.3 mb - 0.06 in1.5 mm 0.03 in0.8 mm
01:27 AM 42.6°F5.9°C 39.4°F4.1°C 88% 6.0 mph ESE9.7 kmh ESE 6.9 mph11.1 kmh 30.10 in1019.3 mb - 0.06 in1.5 mm 0.04 in1.0 mm
01:32 AM 42.4°F5.8°C 39.4°F4.1°C 89% 6.0 mph SE9.7 kmh SE 2.9 mph4.7 kmh 30.10 in1019.3 mb - 0.05 in1.3 mm 0.04 in1.0 mm
01:37 AM 42.4°F5.8°C 39.4°F4.1°C 89% 6.0 mph SE9.7 kmh SE 8.1 mph13.0 kmh 30.09 in1019.0 mb - 0.03 in0.8 mm 0.04 in1.0 mm
01:42 AM 42.4°F5.8°C 39.4°F4.1°C 89% 4.9 mph E7.9 kmh E 6.9 mph11.1 kmh 30.09 in1019.0 mb - 0.00 in0.0 mm 0.04 in1.0 mm
01:47 AM 42.4°F5.8°C 39.4°F4.1°C 89% 4.9 mph SE7.9 kmh SE 2.0 mph3.2 kmh 30.09 in1019.0 mb - 0.00 in0.0 mm 0.04 in1.0 mm
01:52 AM 42.6°F5.9°C 39.6°F4.2°C 89% 4.0 mph E6.4 kmh E 2.9 mph4.7 kmh 30.09 in1019.0 mb - 0.00 in0.0 mm 0.04 in1.0 mm
01:57 AM 42.6°F5.9°C 39.6°F4.2°C 89% 2.9 mph SE4.7 kmh SE -- 30.09 in1019.0 mb - 0.00 in0.0 mm 0.04 in1.0 mm
02:02 AM 42.6°F5.9°C 39.6°F4.2°C 89% 4.0 mph E6.4 kmh E 8.9 mph14.3 kmh 30.09 in1019.0 mb - 0.00 in0.0 mm 0.04 in1.0 mm
02:07 AM 42.6°F5.9°C 39.6°F4.2°C 89% 4.9 mph E7.9 kmh E 2.0 mph3.2 kmh 30.08 in1018.6 mb - 0.00 in0.0 mm 0.04 in1.0 mm
02:12 AM 42.8°F6.0°C 39.7°F4.3°C 89% 4.9 mph E7.9 kmh E 6.9 mph11.1 kmh 30.08 in1018.6 mb - 0.00 in0.0 mm 0.04 in1.0 mm
02:17 AM 42.6°F5.9°C 39.6°F4.2°C 89% 6.0 mph S9.7 kmh S 2.0 mph3.2 kmh 30.08 in1018.6 mb - 0.06 in1.5 mm 0.05 in1.3 mm
02:22 AM 42.4°F5.8°C 39.4°F4.1°C 89% 4.9 mph S7.9 kmh S 12.1 mph19.5 kmh 30.08 in1018.6 mb - 0.12 in3.0 mm 0.06 in1.5 mm
02:27 AM 42.4°F5.8°C 39.4°F4.1°C 89% 4.9 mph ENE7.9 kmh ENE 8.1 mph13.0 kmh 30.08 in1018.6 mb - 0.06 in1.5 mm 0.06 in1.5 mm
02:32 AM 42.4°F5.8°C 39.4°F4.1°C 89% 4.9 mph SE7.9 kmh SE -- 30.07 in1018.3 mb - 0.04 in1.0 mm 0.06 in1.5 mm
02:37 AM 42.4°F5.8°C 39.4°F4.1°C 89% 4.0 mph E6.4 kmh E 6.9 mph11.1 kmh 30.07 in1018.3 mb - 0.03 in0.8 mm 0.06 in1.5 mm
02:42 AM 42.4°F5.8°C 39.4°F4.1°C 89% 2.9 mph SE4.7 kmh SE 4.0 mph6.4 kmh 30.06 in1017.9 mb - 0.03 in0.8 mm 0.07 in1.8 mm
02:47 AM 42.4°F5.8°C 39.4°F4.1°C 89% 4.0 mph E6.4 kmh E 6.9 mph11.1 kmh 30.06 in1017.9 mb - 0.06 in1.5 mm 0.08 in2.0 mm
02:52 AM 42.3°F5.7°C 39.6°F4.2°C 90% 4.0 mph E6.4 kmh E 6.0 mph9.7 kmh 30.06 in1017.9 mb - 0.17 in4.3 mm 0.09 in2.3 mm
02:57 AM 42.3°F5.7°C 39.6°F4.2°C 90% 4.9 mph SE7.9 kmh SE 4.9 mph7.9 kmh 30.06 in1017.9 mb - 0.24 in6.1 mm 0.10 in2.5 mm
03:02 AM 42.1°F5.6°C 39.4°F4.1°C 90% 6.0 mph SSE9.7 kmh SSE -- 30.06 in1017.9 mb - 0.14 in3.6 mm 0.12 in3.0 mm
03:07 AM 42.1°F5.6°C 39.4°F4.1°C 90% 4.9 mph SE7.9 kmh SE -- 30.06 in1017.9 mb - 0.13 in3.3 mm 0.13 in3.3 mm
03:12 AM 41.9°F5.5°C 39.2°F4.0°C 90% 4.0 mph SE6.4 kmh SE -- 30.06 in1017.9 mb - 0.13 in3.3 mm 0.14 in3.6 mm
03:17 AM 41.9°F5.5°C 39.2°F4.0°C 90% 4.0 mph E6.4 kmh E 4.9 mph7.9 kmh 30.06 in1017.9 mb - 0.26 in6.6 mm 0.16 in4.1 mm
03:22 AM 41.9°F5.5°C 39.2°F4.0°C 90% 4.9 mph E7.9 kmh E 4.9 mph7.9 kmh 30.05 in1017.6 mb - 0.09 in2.3 mm 0.17 in4.3 mm
03:27 AM 42.1°F5.6°C 39.4°F4.1°C 90% 6.0 mph SE9.7 kmh SE 4.9 mph7.9 kmh 30.05 in1017.6 mb - 0.05 in1.3 mm 0.17 in4.3 mm
03:32 AM 42.1°F5.6°C 39.4°F4.1°C 90% 4.9 mph ESE7.9 kmh ESE 8.1 mph13.0 kmh 30.05 in1017.6 mb - 0.03 in0.8 mm 0.17 in4.3 mm
03:37 AM 42.1°F5.6°C 39.4°F4.1°C 90% 4.9 mph ENE7.9 kmh ENE 4.9 mph7.9 kmh 30.04 in1017.3 mb - 0.00 in0.0 mm 0.17 in4.3 mm
03:42 AM 42.1°F5.6°C 39.4°F4.1°C 90% 6.0 mph ENE9.7 kmh ENE 2.9 mph4.7 kmh 30.04 in1017.3 mb - 0.00 in0.0 mm 0.18 in4.6 mm
03:47 AM 42.1°F5.6°C 39.4°F4.1°C 90% 4.9 mph SE7.9 kmh SE 2.9 mph4.7 kmh 30.04 in1017.3 mb - 0.00 in0.0 mm 0.18 in4.6 mm
03:52 AM 42.1°F5.6°C 39.6°F4.2°C 91% 2.9 mph E4.7 kmh E 6.0 mph9.7 kmh 30.04 in1017.3 mb - 0.00 in0.0 mm 0.18 in4.6 mm
03:57 AM 42.1°F5.6°C 39.6°F4.2°C 91% 4.9 mph E7.9 kmh E 8.9 mph14.3 kmh 30.05 in1017.6 mb - 0.03 in0.8 mm 0.18 in4.6 mm
04:02 AM 42.1°F5.6°C 39.4°F4.1°C 90% 6.0 mph SE9.7 kmh SE 4.9 mph7.9 kmh 30.04 in1017.3 mb - 0.03 in0.8 mm 0.19 in4.8 mm
04:07 AM 41.9°F5.5°C 39.2°F4.0°C 90% 6.0 mph ESE9.7 kmh ESE 10.1 mph16.3 kmh 30.04 in1017.3 mb - 0.03 in0.8 mm 0.19 in4.8 mm
04:12 AM 41.9°F5.5°C 39.2°F4.0°C 90% 4.0 mph SE6.4 kmh SE 4.9 mph7.9 kmh 30.04 in1017.3 mb - 0.04 in1.0 mm 0.19 in4.8 mm
04:17 AM 41.7°F5.4°C 39.0°F3.9°C 90% 2.9 mph SE4.7 kmh SE -- 30.04 in1017.3 mb - 0.10 in2.5 mm 0.20 in5.1 mm
04:22 AM 41.5°F5.3°C 38.8°F3.8°C 90% 2.9 mph E4.7 kmh E 8.1 mph13.0 kmh 30.04 in1017.3 mb - 0.17 in4.3 mm 0.21 in5.3 mm
04:27 AM 41.5°F5.3°C 38.8°F3.8°C 90% 4.0 mph ENE6.4 kmh ENE 4.0 mph6.4 kmh 30.04 in1017.3 mb - 0.14 in3.6 mm 0.23 in5.8 mm
04:32 AM 41.4°F5.2°C 38.7°F3.7°C 90% 4.0 mph E6.4 kmh E 0.9 mph1.4 kmh 30.03 in1016.9 mb - 0.08 in2.0 mm 0.24 in6.1 mm
04:37 AM 41.4°F5.2°C 38.7°F3.7°C 90% 2.0 mph ESE3.2 kmh ESE 2.0 mph3.2 kmh 30.03 in1016.9 mb - 0.05 in1.3 mm 0.24 in6.1 mm
04:42 AM 41.4°F5.2°C 38.7°F3.7°C 90% 2.0 mph E3.2 kmh E 8.1 mph13.0 kmh 30.03 in1016.9 mb - 0.05 in1.3 mm 0.24 in6.1 mm
04:47 AM 41.4°F5.2°C 38.7°F3.7°C 90% 2.9 mph SE4.7 kmh SE -- 30.03 in1016.9 mb - 0.06 in1.5 mm 0.25 in6.4 mm
04:52 AM 41.2°F5.1°C 38.5°F3.6°C 90% 2.9 mph ESE4.7 kmh ESE 4.0 mph6.4 kmh 30.03 in1016.9 mb - 0.20 in5.1 mm 0.25 in6.4 mm
04:57 AM 40.8°F4.9°C 38.1°F3.4°C 90% 2.9 mph SE4.7 kmh SE 2.0 mph3.2 kmh 30.03 in1016.9 mb - 0.23 in5.8 mm 0.25 in6.4 mm
05:02 AM 40.6°F4.8°C 37.9°F3.3°C 90% 2.0 mph NNE3.2 kmh NNE -- 30.03 in1016.9 mb - 0.23 in5.8 mm 0.30 in7.6 mm
05:07 AM 40.1°F4.5°C 37.4°F3.0°C 90% 2.0 mph ENE3.2 kmh ENE -- 30.03 in1016.9 mb - 0.11 in2.8 mm 0.30 in7.6 mm
05:12 AM 39.9°F4.4°C 37.2°F2.9°C 90% 2.0 mph SSE3.2 kmh SSE -- 30.02 in1016.6 mb - 0.21 in5.3 mm 0.32 in8.1 mm
05:17 AM 39.9°F4.4°C 37.6°F3.1°C 91% 2.0 mph SE3.2 kmh SE -- 30.02 in1016.6 mb - 0.13 in3.3 mm 0.32 in8.1 mm
05:22 AM 40.3°F4.6°C 37.9°F3.3°C 91% 2.0 mph SSE3.2 kmh SSE 2.9 mph4.7 kmh 30.01 in1016.3 mb - 0.08 in2.0 mm 0.35 in8.9 mm
05:27 AM 40.5°F4.7°C 38.1°F3.4°C 91% 2.0 mph E3.2 kmh E -- 30.01 in1016.3 mb - 0.08 in2.0 mm 0.35 in8.9 mm
05:32 AM 40.5°F4.7°C 38.1°F3.4°C 91% 2.9 mph NNE4.7 kmh NNE 2.9 mph4.7 kmh 30.01 in1016.3 mb - 0.06 in1.5 mm 0.35 in8.9 mm
05:37 AM 40.6°F4.8°C 38.3°F3.5°C 91% 4.0 mph S6.4 kmh S 2.0 mph3.2 kmh 30.00 in1015.9 mb - 0.25 in6.4 mm 0.35 in8.9 mm
05:42 AM 40.8°F4.9°C 38.5°F3.6°C 91% 4.0 mph S6.4 kmh S -- 30.00 in1015.9 mb - 0.23 in5.8 mm 0.39 in9.9 mm
05:47 AM 41.0°F5.0°C 38.7°F3.7°C 91% 4.0 mph E6.4 kmh E 4.9 mph7.9 kmh 30.00 in1015.9 mb - 0.06 in1.5 mm 0.39 in9.9 mm
05:52 AM 41.2°F5.1°C 39.0°F3.9°C 92% 4.0 mph SE6.4 kmh SE -- 30.00 in1015.9 mb - 0.05 in1.3 mm 0.40 in10.2 mm
05:57 AM 41.2°F5.1°C 39.0°F3.9°C 92% 2.9 mph E4.7 kmh E 8.1 mph13.0 kmh 30.00 in1015.9 mb - 0.05 in1.3 mm 0.40 in10.2 mm
06:02 AM 41.2°F5.1°C 39.0°F3.9°C 92% 4.0 mph ESE6.4 kmh ESE 10.1 mph16.3 kmh 29.99 in1015.6 mb - 0.04 in1.0 mm 0.41 in10.4 mm
06:07 AM 41.4°F5.2°C 39.0°F3.9°C 91% 6.0 mph SE9.7 kmh SE 8.1 mph13.0 kmh 29.99 in1015.6 mb - 0.04 in1.0 mm 0.41 in10.4 mm
06:12 AM 41.4°F5.2°C 39.0°F3.9°C 91% 8.1 mph E13.0 kmh E 8.1 mph13.0 kmh 29.99 in1015.6 mb - 0.04 in1.0 mm 0.42 in10.7 mm
06:17 AM 41.5°F5.3°C 39.2°F4.0°C 91% 6.9 mph NE11.1 kmh NE 4.0 mph6.4 kmh 29.98 in1015.2 mb - 0.04 in1.0 mm 0.42 in10.7 mm
06:22 AM 41.5°F5.3°C 39.2°F4.0°C 91% 4.9 mph S7.9 kmh S -- 29.99 in1015.6 mb - 0.04 in1.0 mm 0.43 in10.9 mm
06:27 AM 41.5°F5.3°C 39.2°F4.0°C 91% 4.0 mph SE6.4 kmh SE -- 29.99 in1015.6 mb - 0.04 in1.0 mm 0.43 in10.9 mm
06:32 AM 41.4°F5.2°C 39.0°F3.9°C 91% 4.0 mph N6.4 kmh N 2.0 mph3.2 kmh 29.99 in1015.6 mb - 0.00 in0.0 mm 0.43 in10.9 mm
06:37 AM 41.4°F5.2°C 39.0°F3.9°C 91% 4.9 mph E7.9 kmh E 8.9 mph14.3 kmh 29.98 in1015.2 mb - 0.00 in0.0 mm 0.43 in10.9 mm
06:42 AM 41.4°F5.2°C 39.0°F3.9°C 91% 6.0 mph N9.7 kmh N 0.9 mph1.4 kmh 29.98 in1015.2 mb - 0.00 in0.0 mm 0.43 in10.9 mm
06:47 AM 41.4°F5.2°C 39.0°F3.9°C 91% 6.9 mph SE11.1 kmh SE 4.9 mph7.9 kmh 29.98 in1015.2 mb - 0.00 in0.0 mm 0.43 in10.9 mm
06:52 AM 41.2°F5.1°C 38.8°F3.8°C 91% 6.9 mph SSW11.1 kmh SSW -- 29.99 in1015.6 mb - 0.00 in0.0 mm 0.43 in10.9 mm
06:57 AM 41.2°F5.1°C 38.8°F3.8°C 91% 6.0 mph E9.7 kmh E -- 29.98 in1015.2 mb - 0.00 in0.0 mm 0.43 in10.9 mm
07:02 AM 41.2°F5.1°C 38.8°F3.8°C 91% 4.9 mph NE7.9 kmh NE 10.1 mph16.3 kmh 29.98 in1015.2 mb - 0.00 in0.0 mm 0.43 in10.9 mm
07:07 AM 41.0°F5.0°C 38.7°F3.7°C 91% 6.9 mph NE11.1 kmh NE 6.9 mph11.1 kmh 29.98 in1015.2 mb - 0.14 in3.6 mm 0.43 in10.9 mm
07:12 AM 40.8°F4.9°C 38.5°F3.6°C 91% 8.9 mph NNW14.3 kmh NNW 10.1 mph16.3 kmh 29.98 in1015.2 mb - 0.44 in11.2 mm 0.47 in11.9 mm
07:17 AM 40.6°F4.8°C 37.9°F3.3°C 90% 8.1 mph NW13.0 kmh NW 4.0 mph6.4 kmh 29.99 in1015.6 mb - 0.36 in9.1 mm 0.47 in11.9 mm
07:22 AM 40.3°F4.6°C 37.6°F3.1°C 90% 8.9 mph ENE14.3 kmh ENE 2.9 mph4.7 kmh 29.98 in1015.2 mb - 0.33 in8.4 mm 0.54 in13.7 mm
07:27 AM 40.1°F4.5°C 37.4°F3.0°C 90% 6.9 mph NE11.1 kmh NE 4.0 mph6.4 kmh 29.98 in1015.2 mb - 0.19 in4.8 mm 0.54 in13.7 mm
07:32 AM 39.9°F4.4°C 37.2°F2.9°C 90% 6.0 mph NNW9.7 kmh NNW 21.9 mph35.2 kmh 29.98 in1015.2 mb - 0.17 in4.3 mm 0.57 in14.5 mm
07:37 AM 39.9°F4.4°C 37.2°F2.9°C 90% 8.1 mph NE13.0 kmh NE 2.9 mph4.7 kmh 29.99 in1015.6 mb - 0.20 in5.1 mm 0.57 in14.5 mm
07:42 AM 39.7°F4.3°C 37.0°F2.8°C 90% 8.1 mph NW13.0 kmh NW 17.9 mph28.8 kmh 29.99 in1015.6 mb - 0.24 in6.1 mm 0.61 in15.5 mm
07:47 AM 39.6°F4.2°C 36.9°F2.7°C 90% 8.1 mph N13.0 kmh N 4.0 mph6.4 kmh 29.99 in1015.6 mb - 0.28 in7.1 mm 0.61 in15.5 mm
07:52 AM 39.6°F4.2°C 36.9°F2.7°C 90% 8.1 mph N13.0 kmh N -- 29.99 in1015.6 mb - 0.29 in7.4 mm 0.65 in16.5 mm
07:57 AM 39.2°F4.0°C 36.3°F2.4°C 89% 4.9 mph ENE7.9 kmh ENE 4.9 mph7.9 kmh 29.99 in1015.6 mb - 0.18 in4.6 mm 0.65 in16.5 mm
08:02 AM 39.0°F3.9°C 36.3°F2.4°C 90% 4.0 mph W6.4 kmh W 0.9 mph1.4 kmh 29.99 in1015.6 mb - 0.20 in5.1 mm 0.69 in17.5 mm
08:07 AM 38.8°F3.8°C 36.1°F2.3°C 90% 4.9 mph N7.9 kmh N 2.0 mph3.2 kmh 29.99 in1015.6 mb - 0.17 in4.3 mm 0.69 in17.5 mm
08:12 AM 38.8°F3.8°C 36.1°F2.3°C 90% 4.0 mph ESE6.4 kmh ESE -- 30.00 in1015.9 mb - 0.12 in3.0 mm 0.72 in18.3 mm
08:17 AM 38.7°F3.7°C 36.0°F2.2°C 90% 2.9 mph SE4.7 kmh SE 4.0 mph6.4 kmh 29.99 in1015.6 mb - 0.17 in4.3 mm 0.72 in18.3 mm
08:22 AM 38.5°F3.6°C 35.8°F2.1°C 90% 2.9 mph ESE4.7 kmh ESE 4.9 mph7.9 kmh 29.99 in1015.6 mb - 0.18 in4.6 mm 0.75 in19.1 mm
08:27 AM 38.3°F3.5°C 36.0°F2.2°C 91% 2.9 mph ESE4.7 kmh ESE 8.1 mph13.0 kmh 30.00 in1015.9 mb - 0.11 in2.8 mm 0.75 in19.1 mm
08:32 AM 38.1°F3.4°C 35.8°F2.1°C 91% 4.0 mph ESE6.4 kmh ESE 4.0 mph6.4 kmh 30.00 in1015.9 mb - 0.13 in3.3 mm 0.77 in19.6 mm
08:37 AM 38.1°F3.4°C 35.8°F2.1°C 91% 4.9 mph NE7.9 kmh NE -- 30.00 in1015.9 mb - 0.07 in1.8 mm 0.78 in19.8 mm
08:42 AM 38.3°F3.5°C 36.0°F2.2°C 91% 4.0 mph SE6.4 kmh SE 6.0 mph9.7 kmh 30.00 in1015.9 mb - 0.04 in1.0 mm 0.78 in19.8 mm
08:47 AM 38.5°F3.6°C 36.3°F2.4°C 92% 4.0 mph SE6.4 kmh SE 2.0 mph3.2 kmh 30.00 in1015.9 mb - 0.03 in0.8 mm 0.78 in19.8 mm
08:52 AM 38.7°F3.7°C 36.5°F2.5°C 92% 4.0 mph SE6.4 kmh SE 4.0 mph6.4 kmh 30.00 in1015.9 mb - 0.00 in0.0 mm 0.78 in19.8 mm
08:57 AM 38.8°F3.8°C 36.7°F2.6°C 92% 2.9 mph ENE4.7 kmh ENE 4.0 mph6.4 kmh 29.99 in1015.6 mb - 0.00 in0.0 mm 0.79 in20.1 mm
09:02 AM 39.0°F3.9°C 36.9°F2.7°C 92% 4.0 mph ESE6.4 kmh ESE 6.9 mph11.1 kmh 30.00 in1015.9 mb - 0.00 in0.0 mm 0.79 in20.1 mm
09:07 AM 39.4°F4.1°C 37.6°F3.1°C 93% 4.9 mph E7.9 kmh E 2.9 mph4.7 kmh 29.99 in1015.6 mb - 0.00 in0.0 mm 0.79 in20.1 mm
09:12 AM 39.4°F4.1°C 37.2°F2.9°C 92% 6.0 mph NE9.7 kmh NE 8.9 mph14.3 kmh 30.00 in1015.9 mb - 0.00 in0.0 mm 0.79 in20.1 mm
09:17 AM 39.6°F4.2°C 37.8°F3.2°C 93% 4.9 mph NE7.9 kmh NE 10.1 mph16.3 kmh 30.00 in1015.9 mb - 0.00 in0.0 mm 0.80 in20.3 mm
09:22 AM 39.4°F4.1°C 37.2°F2.9°C 92% 4.9 mph N7.9 kmh N 12.1 mph19.5 kmh 30.00 in1015.9 mb - 0.08 in2.0 mm 0.80 in20.3 mm
09:27 AM 39.4°F4.1°C 37.2°F2.9°C 92% 6.9 mph N11.1 kmh N 10.1 mph16.3 kmh 30.00 in1015.9 mb - 0.09 in2.3 mm 0.81 in20.6 mm
09:32 AM 39.2°F4.0°C 37.0°F2.8°C 92% 6.9 mph NW11.1 kmh NW 16.1 mph25.9 kmh 30.00 in1015.9 mb - 0.09 in2.3 mm 0.81 in20.6 mm
09:37 AM 39.2°F4.0°C 37.0°F2.8°C 92% 6.9 mph NE11.1 kmh NE 8.1 mph13.0 kmh 30.00 in1015.9 mb - 0.13 in3.3 mm 0.83 in21.1 mm
09:42 AM 39.4°F4.1°C 37.2°F2.9°C 92% 6.9 mph NNE11.1 kmh NNE 4.9 mph7.9 kmh 30.00 in1015.9 mb - 0.08 in2.0 mm 0.83 in21.1 mm
09:47 AM 39.6°F4.2°C 37.4°F3.0°C 92% 8.9 mph 14.3 kmh 12.1 mph19.5 kmh 30.00 in1015.9 mb - 0.04 in1.0 mm 0.83 in21.1 mm
09:52 AM 39.6°F4.2°C 37.4°F3.0°C 92% 8.9 mph NNW14.3 kmh NNW 17.0 mph27.4 kmh 30.00 in1015.9 mb - 0.03 in0.8 mm 0.83 in21.1 mm
09:57 AM 39.7°F4.3°C 37.4°F3.0°C 91% 8.1 mph NNW13.0 kmh NNW 4.9 mph7.9 kmh 29.99 in1015.6 mb - 0.00 in0.0 mm 0.83 in21.1 mm
10:02 AM 39.7°F4.3°C 37.4°F3.0°C 91% 6.0 mph NNE9.7 kmh NNE 2.9 mph4.7 kmh 29.99 in1015.6 mb - 0.00 in0.0 mm 0.83 in21.1 mm
10:07 AM 39.9°F4.4°C 37.6°F3.1°C 91% 4.0 mph NNE6.4 kmh NNE 4.0 mph6.4 kmh 30.00 in1015.9 mb - 0.00 in0.0 mm 0.83 in21.1 mm
10:12 AM 39.9°F4.4°C 37.6°F3.1°C 91% 4.0 mph N6.4 kmh N 6.0 mph9.7 kmh 29.99 in1015.6 mb - 0.00 in0.0 mm 0.83 in21.1 mm
10:17 AM 39.7°F4.3°C 37.0°F2.8°C 90% 4.9 mph NE7.9 kmh NE 6.0 mph9.7 kmh 29.99 in1015.6 mb - 0.14 in3.6 mm 0.85 in21.6 mm
10:22 AM 39.9°F4.4°C 37.2°F2.9°C 90% 4.9 mph WNW7.9 kmh WNW 6.0 mph9.7 kmh 30.00 in1015.9 mb - 0.14 in3.6 mm 0.87 in22.1 mm
10:27 AM 39.9°F4.4°C 37.2°F2.9°C 90% 4.9 mph WNW7.9 kmh WNW -- 30.00 in1015.9 mb - 0.14 in3.6 mm 0.87 in22.1 mm
10:32 AM 39.9°F4.4°C 37.2°F2.9°C 90% 4.9 mph N7.9 kmh N 6.9 mph11.1 kmh 30.00 in1015.9 mb - 0.12 in3.0 mm 0.88 in22.4 mm
10:37 AM 39.9°F4.4°C 37.2°F2.9°C 90% 4.9 mph NW7.9 kmh NW -- 30.00 in1015.9 mb - 0.14 in3.6 mm 0.90 in22.9 mm
10:42 AM 40.1°F4.5°C 37.8°F3.2°C 91% 4.9 mph NNE7.9 kmh NNE 2.9 mph4.7 kmh 30.00 in1015.9 mb - 0.11 in2.8 mm 0.90 in22.9 mm
10:47 AM 40.3°F4.6°C 37.9°F3.3°C 91% 4.9 mph NW7.9 kmh NW 6.9 mph11.1 kmh 29.99 in1015.6 mb - 0.06 in1.5 mm 0.91 in23.1 mm
10:52 AM 40.5°F4.7°C 38.1°F3.4°C 91% 6.0 mph NW9.7 kmh NW 2.9 mph4.7 kmh 29.99 in1015.6 mb - 0.05 in1.3 mm 0.91 in23.1 mm
10:57 AM 40.6°F4.8°C 38.3°F3.5°C 91% 4.0 mph NNE6.4 kmh NNE 6.0 mph9.7 kmh 29.99 in1015.6 mb - 0.05 in1.3 mm 0.91 in23.1 mm
11:02 AM 40.8°F4.9°C 38.5°F3.6°C 91% 4.9 mph NE7.9 kmh NE 0.9 mph1.4 kmh 30.00 in1015.9 mb - 0.04 in1.0 mm 0.91 in23.1 mm
11:07 AM 40.6°F4.8°C 38.3°F3.5°C 91% 6.0 mph WNW9.7 kmh WNW 11.0 mph17.7 kmh 30.00 in1015.9 mb - 0.00 in0.0 mm 0.91 in23.1 mm
11:12 AM 40.6°F4.8°C 38.3°F3.5°C 91% 4.9 mph ENE7.9 kmh ENE 0.9 mph1.4 kmh 30.00 in1015.9 mb - 0.00 in0.0 mm 0.92 in23.4 mm
11:17 AM 40.8°F4.9°C 38.5°F3.6°C 91% 4.0 mph N6.4 kmh N -- 30.00 in1015.9 mb - 0.05 in1.3 mm 0.92 in23.4 mm
11:22 AM 40.8°F4.9°C 38.5°F3.6°C 91% 4.0 mph ENE6.4 kmh ENE 2.9 mph4.7 kmh 30.00 in1015.9 mb - 0.05 in1.3 mm 0.93 in23.6 mm
11:27 AM 40.8°F4.9°C 38.5°F3.6°C 91% 4.9 mph NE7.9 kmh NE -- 30.00 in1015.9 mb - 0.05 in1.3 mm 0.93 in23.6 mm
11:32 AM 40.8°F4.9°C 38.5°F3.6°C 91% 4.0 mph N6.4 kmh N 8.9 mph14.3 kmh 30.00 in1015.9 mb - 0.03 in0.8 mm 0.93 in23.6 mm
11:37 AM 40.6°F4.8°C 38.3°F3.5°C 91% 4.9 mph NW7.9 kmh NW -- 30.00 in1015.9 mb - 0.00 in0.0 mm 0.93 in23.6 mm
11:42 AM 40.8°F4.9°C 38.5°F3.6°C 91% 4.9 mph W7.9 kmh W -- 30.00 in1015.9 mb - 0.00 in0.0 mm 0.93 in23.6 mm
11:47 AM 40.8°F4.9°C 38.5°F3.6°C 91% 4.9 mph NE7.9 kmh NE 10.1 mph16.3 kmh 30.01 in1016.3 mb - 0.00 in0.0 mm 0.94 in23.9 mm
11:52 AM 40.8°F4.9°C 38.5°F3.6°C 91% 4.9 mph NNW7.9 kmh NNW 6.9 mph11.1 kmh 30.00 in1015.9 mb - 0.08 in2.0 mm 0.94 in23.9 mm
11:57 AM 40.8°F4.9°C 38.5°F3.6°C 91% 6.0 mph SSW9.7 kmh SSW 8.9 mph14.3 kmh 30.00 in1015.9 mb - 0.08 in2.0 mm 0.94 in23.9 mm
12:02 PM 40.6°F4.8°C 38.3°F3.5°C 91% 4.0 mph ENE6.4 kmh ENE 4.0 mph6.4 kmh 30.00 in1015.9 mb - 0.06 in1.5 mm 0.95 in24.1 mm
12:07 PM 40.8°F4.9°C 38.5°F3.6°C 91% 2.9 mph NE4.7 kmh NE 4.9 mph7.9 kmh 30.00 in1015.9 mb - 0.04 in1.0 mm 0.95 in24.1 mm
12:12 PM 40.8°F4.9°C 38.5°F3.6°C 91% 4.0 mph NW6.4 kmh NW 6.0 mph9.7 kmh 30.00 in1015.9 mb - 0.04 in1.0 mm 0.96 in24.4 mm
12:17 PM 40.8°F4.9°C 38.5°F3.6°C 91% 4.0 mph NW6.4 kmh NW -- 30.00 in1015.9 mb - 0.04 in1.0 mm 0.96 in24.4 mm
12:22 PM 40.8°F4.9°C 38.5°F3.6°C 91% 2.9 mph NE4.7 kmh NE 4.9 mph7.9 kmh 30.00 in1015.9 mb - 0.04 in1.0 mm 0.97 in24.6 mm
12:27 PM 40.8°F4.9°C 38.5°F3.6°C 91% 4.0 mph NE6.4 kmh NE 4.9 mph7.9 kmh 30.01 in1016.3 mb - 0.04 in1.0 mm 0.97 in24.6 mm
12:32 PM 40.8°F4.9°C 38.5°F3.6°C 91% 4.0 mph SE6.4 kmh SE -- 30.00 in1015.9 mb - 0.03 in0.8 mm 0.97 in24.6 mm
12:37 PM 40.6°F4.8°C 38.3°F3.5°C 91% 2.0 mph NNW3.2 kmh NNW 4.0 mph6.4 kmh 30.01 in1016.3 mb - 0.03 in0.8 mm 0.98 in24.9 mm
12:42 PM 40.6°F4.8°C 38.3°F3.5°C 91% 2.0 mph NW3.2 kmh NW 0.9 mph1.4 kmh 30.01 in1016.3 mb - 0.03 in0.8 mm 0.98 in24.9 mm
12:47 PM 40.8°F4.9°C 38.5°F3.6°C 91% 4.0 mph NE6.4 kmh NE 4.0 mph6.4 kmh 30.01 in1016.3 mb - 0.04 in1.0 mm 0.98 in24.9 mm
12:52 PM 40.8°F4.9°C 38.5°F3.6°C 91% 4.9 mph SE7.9 kmh SE -- 30.01 in1016.3 mb - 0.04 in1.0 mm 0.98 in24.9 mm
12:57 PM 40.8°F4.9°C 38.5°F3.6°C 91% 4.0 mph N6.4 kmh N 6.0 mph9.7 kmh 30.01 in1016.3 mb - 0.08 in2.0 mm 0.99 in25.1 mm
01:02 PM 40.6°F4.8°C 38.3°F3.5°C 91% 4.0 mph NNW6.4 kmh NNW 4.9 mph7.9 kmh 30.01 in1016.3 mb - 0.06 in1.5 mm 0.99 in25.1 mm
01:07 PM 40.6°F4.8°C 38.3°F3.5°C 91% 4.9 mph NNW7.9 kmh NNW 8.1 mph13.0 kmh 30.01 in1016.3 mb - 0.06 in1.5 mm 1.00 in25.4 mm
01:12 PM 40.8°F4.9°C 38.5°F3.6°C 91% 4.9 mph ENE7.9 kmh ENE -- 30.01 in1016.3 mb - 0.05 in1.3 mm 1.00 in25.4 mm
01:17 PM 41.0°F5.0°C 38.7°F3.7°C 91% 4.0 mph N6.4 kmh N 6.9 mph11.1 kmh 30.01 in1016.3 mb - 0.03 in0.8 mm 1.00 in25.4 mm
01:22 PM 40.8°F4.9°C 38.1°F3.4°C 90% 2.0 mph NW3.2 kmh NW -- 30.01 in1016.3 mb - 0.03 in0.8 mm 1.01 in25.7 mm
01:27 PM 41.2°F5.1°C 38.8°F3.8°C 91% 0.9 mph NE1.4 kmh NE 4.0 mph6.4 kmh 30.01 in1016.3 mb - 0.06 in1.5 mm 1.02 in25.9 mm
01:32 PM 41.0°F5.0°C 38.7°F3.7°C 91% 2.0 mph NE3.2 kmh NE 2.0 mph3.2 kmh 30.01 in1016.3 mb - 0.07 in1.8 mm 1.02 in25.9 mm
01:37 PM 40.8°F4.9°C 38.5°F3.6°C 91% 4.0 mph N6.4 kmh N 2.9 mph4.7 kmh 30.01 in1016.3 mb - 0.06 in1.5 mm 1.02 in25.9 mm
01:42 PM 40.8°F4.9°C 38.5°F3.6°C 91% 4.0 mph NNW6.4 kmh NNW 4.0 mph6.4 kmh 30.01 in1016.3 mb - 0.06 in1.5 mm 1.03 in26.2 mm
01:47 PM 40.6°F4.8°C 38.3°F3.5°C 91% 4.0 mph NW6.4 kmh NW 8.1 mph13.0 kmh 30.01 in1016.3 mb - 0.06 in1.5 mm 1.03 in26.2 mm
01:52 PM 40.6°F4.8°C 38.3°F3.5°C 91% 4.0 mph SW6.4 kmh SW 0.9 mph1.4 kmh 30.01 in1016.3 mb - 0.06 in1.5 mm 1.04 in26.4 mm
01:57 PM 40.6°F4.8°C 38.3°F3.5°C 91% 2.9 mph WSW4.7 kmh WSW 4.9 mph7.9 kmh 30.01 in1016.3 mb - 0.05 in1.3 mm 1.04 in26.4 mm
02:02 PM 40.6°F4.8°C 38.3°F3.5°C 91% 4.0 mph NW6.4 kmh NW 6.0 mph9.7 kmh 30.01 in1016.3 mb - 0.05 in1.3 mm 1.05 in26.7 mm
02:07 PM 40.6°F4.8°C 38.3°F3.5°C 91% 4.0 mph E6.4 kmh E 2.0 mph3.2 kmh 30.01 in1016.3 mb - 0.04 in1.0 mm 1.05 in26.7 mm
02:12 PM 40.6°F4.8°C 38.3°F3.5°C 91% 4.0 mph SW6.4 kmh SW -- 30.01 in1016.3 mb - 0.04 in1.0 mm 1.06 in26.9 mm
02:17 PM 40.6°F4.8°C 38.3°F3.5°C 91% 2.9 mph NE4.7 kmh NE -- 30.02 in1016.6 mb - 0.04 in1.0 mm 1.06 in26.9 mm
02:22 PM 40.6°F4.8°C 38.3°F3.5°C 91% 2.9 mph NNE4.7 kmh NNE -- 30.02 in1016.6 mb - 0.03 in0.8 mm 1.06 in26.9 mm
02:27 PM 40.6°F4.8°C 38.3°F3.5°C 91% 2.9 mph N4.7 kmh N 2.9 mph4.7 kmh 30.02 in1016.6 mb - 0.00 in0.0 mm 1.06 in26.9 mm
02:32 PM 40.6°F4.8°C 38.3°F3.5°C 91% 6.0 mph N9.7 kmh N 2.9 mph4.7 kmh 30.02 in1016.6 mb - 0.00 in0.0 mm 1.06 in26.9 mm
02:37 PM 40.5°F4.7°C 37.8°F3.2°C 90% 6.0 mph N9.7 kmh N 4.0 mph6.4 kmh 30.02 in1016.6 mb - 0.00 in0.0 mm 1.06 in26.9 mm
02:42 PM 40.6°F4.8°C 37.9°F3.3°C 90% 4.9 mph N7.9 kmh N 2.9 mph4.7 kmh 30.02 in1016.6 mb - 0.00 in0.0 mm 1.06 in26.9 mm
02:47 PM 40.6°F4.8°C 37.9°F3.3°C 90% 4.0 mph N6.4 kmh N -- 30.03 in1016.9 mb - 0.00 in0.0 mm 1.06 in26.9 mm
02:52 PM 40.6°F4.8°C 37.9°F3.3°C 90% 2.9 mph NE4.7 kmh NE 4.0 mph6.4 kmh 30.03 in1016.9 mb - 0.00 in0.0 mm 1.06 in26.9 mm
02:57 PM 40.6°F4.8°C 37.9°F3.3°C 90% 4.0 mph NNW6.4 kmh NNW 4.9 mph7.9 kmh 30.03 in1016.9 mb - 0.00 in0.0 mm 1.06 in26.9 mm
03:02 PM 40.6°F4.8°C 38.3°F3.5°C 91% 4.0 mph NW6.4 kmh NW 0.9 mph1.4 kmh 30.03 in1016.9 mb - 0.00 in0.0 mm 1.06 in26.9 mm
03:07 PM 40.6°F4.8°C 38.3°F3.5°C 91% 2.9 mph NNW4.7 kmh NNW 4.9 mph7.9 kmh 30.03 in1016.9 mb - 0.00 in0.0 mm 1.06 in26.9 mm
03:12 PM 40.5°F4.7°C 38.1°F3.4°C 91% 4.0 mph NNE6.4 kmh NNE 4.9 mph7.9 kmh 30.03 in1016.9 mb - 0.00 in0.0 mm 1.06 in26.9 mm
03:17 PM 40.5°F4.7°C 38.1°F3.4°C 91% 4.9 mph NW7.9 kmh NW -- 30.04 in1017.3 mb - 0.00 in0.0 mm 1.06 in26.9 mm
03:22 PM 40.5°F4.7°C 38.1°F3.4°C 91% 4.0 mph NNW6.4 kmh NNW 4.0 mph6.4 kmh 30.04 in1017.3 mb - 0.00 in0.0 mm 1.06 in26.9 mm
03:27 PM 40.5°F4.7°C 38.1°F3.4°C 91% 4.9 mph NNW7.9 kmh NNW 6.0 mph9.7 kmh 30.04 in1017.3 mb - 0.00 in0.0 mm 1.06 in26.9 mm
03:32 PM 40.5°F4.7°C 38.1°F3.4°C 91% 4.9 mph N7.9 kmh N 4.9 mph7.9 kmh 30.04 in1017.3 mb - 0.00 in0.0 mm 1.06 in26.9 mm
03:37 PM 40.5°F4.7°C 38.1°F3.4°C 91% 6.0 mph NW9.7 kmh NW 6.0 mph9.7 kmh 30.04 in1017.3 mb - 0.00 in0.0 mm 1.06 in26.9 mm
03:42 PM 40.5°F4.7°C 38.1°F3.4°C 91% 4.9 mph NW7.9 kmh NW 6.0 mph9.7 kmh 30.05 in1017.6 mb - 0.00 in0.0 mm 1.06 in26.9 mm
03:47 PM 40.3°F4.6°C 37.9°F3.3°C 91% 4.0 mph NW6.4 kmh NW 4.9 mph7.9 kmh 30.05 in1017.6 mb - 0.00 in0.0 mm 1.06 in26.9 mm
03:52 PM 40.3°F4.6°C 37.9°F3.3°C 91% 4.0 mph NW6.4 kmh NW 0.9 mph1.4 kmh 30.05 in1017.6 mb - 0.00 in0.0 mm 1.06 in26.9 mm
03:57 PM 40.3°F4.6°C 37.9°F3.3°C 91% 2.0 mph NNW3.2 kmh NNW 4.0 mph6.4 kmh 30.05 in1017.6 mb - 0.00 in0.0 mm 1.07 in27.2 mm
04:02 PM 40.3°F4.6°C 37.9°F3.3°C 91% 2.0 mph W3.2 kmh W -- 30.05 in1017.6 mb - 0.00 in0.0 mm 1.07 in27.2 mm
04:07 PM 40.3°F4.6°C 37.9°F3.3°C 91% 2.0 mph NNW3.2 kmh NNW -- 30.06 in1017.9 mb - 0.00 in0.0 mm 1.07 in27.2 mm
04:12 PM 40.3°F4.6°C 37.9°F3.3°C 91% 2.0 mph NW3.2 kmh NW -- 30.06 in1017.9 mb - 0.00 in0.0 mm 1.07 in27.2 mm
04:17 PM 40.3°F4.6°C 37.9°F3.3°C 91% 0.9 mph NW1.4 kmh NW -- 30.05 in1017.6 mb - 0.00 in0.0 mm 1.07 in27.2 mm
04:22 PM 40.5°F4.7°C 38.1°F3.4°C 91% 0.9 mph NW1.4 kmh NW -- 30.05 in1017.6 mb - 0.00 in0.0 mm 1.07 in27.2 mm
04:27 PM 40.3°F4.6°C 37.9°F3.3°C 91% 0.9 mph NW1.4 kmh NW -- 30.06 in1017.9 mb - 0.00 in0.0 mm 1.07 in27.2 mm
04:32 PM 40.3°F4.6°C 37.9°F3.3°C 91% Calm Calm -- 30.05 in1017.6 mb - 0.00 in0.0 mm 1.07 in27.2 mm
04:37 PM 40.3°F4.6°C 38.1°F3.4°C 92% Calm Calm -- 30.06 in1017.9 mb - 0.00 in0.0 mm 1.07 in27.2 mm
04:42 PM 39.9°F4.4°C 37.6°F3.1°C 91% Calm Calm -- 30.06 in1017.9 mb - 0.00 in0.0 mm 1.07 in27.2 mm
04:47 PM 39.7°F4.3°C 37.4°F3.0°C 91% Calm Calm -- 30.06 in1017.9 mb - 0.08 in2.0 mm 1.08 in27.4 mm
04:52 PM 39.6°F4.2°C 37.2°F2.9°C 91% Calm Calm -- 30.06 in1017.9 mb - 0.08 in2.0 mm 1.09 in27.7 mm
04:57 PM 39.7°F4.3°C 37.6°F3.1°C 92% Calm Calm -- 30.06 in1017.9 mb - 0.04 in1.0 mm 1.09 in27.7 mm
05:02 PM 39.7°F4.3°C 37.6°F3.1°C 92% Calm Calm -- 30.07 in1018.3 mb - 0.03 in0.8 mm 1.09 in27.7 mm
05:07 PM 39.7°F4.3°C 37.6°F3.1°C 92% Calm Calm -- 30.07 in1018.3 mb - 0.03 in0.8 mm 1.09 in27.7 mm
05:12 PM 39.9°F4.4°C 37.8°F3.2°C 92% Calm Calm -- 30.07 in1018.3 mb - 0.03 in0.8 mm 1.09 in27.7 mm
05:17 PM 39.9°F4.4°C 37.8°F3.2°C 92% Calm Calm -- 30.07 in1018.3 mb - 0.03 in0.8 mm 1.09 in27.7 mm
05:22 PM 39.9°F4.4°C 37.8°F3.2°C 92% Calm Calm -- 30.08 in1018.6 mb - 0.03 in0.8 mm 1.10 in27.9 mm
05:27 PM 39.9°F4.4°C 38.1°F3.4°C 93% Calm Calm -- 30.08 in1018.6 mb - 0.03 in0.8 mm 1.10 in27.9 mm
05:32 PM 39.9°F4.4°C 38.1°F3.4°C 93% Calm Calm -- 30.08 in1018.6 mb - 0.03 in0.8 mm 1.10 in27.9 mm
05:37 PM 39.7°F4.3°C 37.9°F3.3°C 93% Calm Calm -- 30.08 in1018.6 mb - 0.00 in0.0 mm 1.10 in27.9 mm
05:42 PM 39.7°F4.3°C 37.9°F3.3°C 93% Calm Calm -- 30.08 in1018.6 mb - 0.00 in0.0 mm 1.10 in27.9 mm
05:47 PM 39.9°F4.4°C 38.1°F3.4°C 93% Calm Calm -- 30.08 in1018.6 mb - 0.00 in0.0 mm 1.10 in27.9 mm
05:52 PM 39.7°F4.3°C 37.9°F3.3°C 93% Calm Calm -- 30.09 in1019.0 mb - 0.00 in0.0 mm 1.10 in27.9 mm
05:57 PM 39.7°F4.3°C 37.9°F3.3°C 93% Calm Calm -- 30.09 in1019.0 mb - 0.00 in0.0 mm 1.10 in27.9 mm
06:02 PM 39.7°F4.3°C 37.9°F3.3°C 93% Calm Calm -- 30.09 in1019.0 mb - 0.00 in0.0 mm 1.10 in27.9 mm
06:07 PM 39.7°F4.3°C 38.1°F3.4°C 94% Calm Calm -- 30.09 in1019.0 mb - 0.00 in0.0 mm 1.10 in27.9 mm
06:12 PM 39.7°F4.3°C 38.1°F3.4°C 94% Calm Calm -- 30.09 in1019.0 mb - 0.00 in0.0 mm 1.10 in27.9 mm
06:17 PM 39.7°F4.3°C 38.1°F3.4°C 94% Calm Calm -- 30.09 in1019.0 mb - 0.00 in0.0 mm 1.10 in27.9 mm
06:22 PM 39.6°F4.2°C 37.9°F3.3°C 94% Calm Calm -- 30.09 in1019.0 mb - 0.00 in0.0 mm 1.10 in27.9 mm
06:27 PM 39.6°F4.2°C 37.9°F3.3°C 94% 0.9 mph N1.4 kmh N -- 30.09 in1019.0 mb - 0.00 in0.0 mm 1.10 in27.9 mm
06:32 PM 39.7°F4.3°C 38.1°F3.4°C 94% 0.9 mph NW1.4 kmh NW 2.9 mph4.7 kmh 30.10 in1019.3 mb - 0.00 in0.0 mm 1.10 in27.9 mm
06:37 PM 39.7°F4.3°C 38.1°F3.4°C 94% 0.9 mph WNW1.4 kmh WNW 2.0 mph3.2 kmh 30.10 in1019.3 mb - 0.00 in0.0 mm 1.10 in27.9 mm
06:42 PM 39.9°F4.4°C 38.3°F3.5°C 94% 0.9 mph NNW1.4 kmh NNW -- 30.10 in1019.3 mb - 0.00 in0.0 mm 1.10 in27.9 mm
06:47 PM 39.9°F4.4°C 38.1°F3.4°C 93% 0.9 mph W1.4 kmh W -- 30.10 in1019.3 mb - 0.00 in0.0 mm 1.10 in27.9 mm
06:52 PM 39.9°F4.4°C 38.1°F3.4°C 93% Calm Calm -- 30.10 in1019.3 mb - 0.00 in0.0 mm 1.10 in27.9 mm
06:57 PM 39.9°F4.4°C 38.1°F3.4°C 93% Calm Calm -- 30.10 in1019.3 mb - 0.00 in0.0 mm 1.10 in27.9 mm
07:02 PM 39.9°F4.4°C 38.1°F3.4°C 93% Calm Calm -- 30.11 in1019.6 mb - 0.00 in0.0 mm 1.11 in28.2 mm
07:07 PM 39.7°F4.3°C 37.9°F3.3°C 93% Calm Calm -- 30.11 in1019.6 mb - 0.00 in0.0 mm 1.11 in28.2 mm
07:12 PM 39.7°F4.3°C 37.9°F3.3°C 93% Calm Calm -- 30.12 in1020.0 mb - 0.03 in0.8 mm 1.11 in28.2 mm
07:17 PM 39.6°F4.2°C 37.8°F3.2°C 93% Calm Calm 4.9 mph7.9 kmh 30.12 in1020.0 mb - 0.03 in0.8 mm 1.12 in28.4 mm
07:22 PM 39.2°F4.0°C 37.4°F3.0°C 93% 2.9 mph NW4.7 kmh NW 4.0 mph6.4 kmh 30.12 in1020.0 mb - 0.06 in1.5 mm 1.13 in28.7 mm
07:27 PM 38.8°F3.8°C 37.0°F2.8°C 93% 6.0 mph NW9.7 kmh NW 8.9 mph14.3 kmh 30.12 in1020.0 mb - 0.06 in1.5 mm 1.13 in28.7 mm
07:32 PM 38.7°F3.7°C 36.9°F2.7°C 93% 6.9 mph NW11.1 kmh NW 6.9 mph11.1 kmh 30.12 in1020.0 mb - 0.06 in1.5 mm 1.13 in28.7 mm
07:37 PM 38.5°F3.6°C 36.7°F2.6°C 93% 6.0 mph NW9.7 kmh NW 8.1 mph13.0 kmh 30.13 in1020.3 mb - 0.05 in1.3 mm 1.13 in28.7 mm
07:42 PM 38.5°F3.6°C 36.7°F2.6°C 93% 6.9 mph NW11.1 kmh NW 4.0 mph6.4 kmh 30.13 in1020.3 mb - 0.07 in1.8 mm 1.14 in29.0 mm
07:47 PM 38.5°F3.6°C 36.7°F2.6°C 93% 6.0 mph WNW9.7 kmh WNW 4.9 mph7.9 kmh 30.13 in1020.3 mb - 0.07 in1.8 mm 1.15 in29.2 mm
07:52 PM 38.5°F3.6°C 36.7°F2.6°C 93% 4.9 mph NW7.9 kmh NW 4.0 mph6.4 kmh 30.13 in1020.3 mb - 0.06 in1.5 mm 1.15 in29.2 mm
07:57 PM 38.7°F3.7°C 36.9°F2.7°C 93% 4.9 mph NW7.9 kmh NW 6.9 mph11.1 kmh 30.14 in1020.7 mb - 0.06 in1.5 mm 1.16 in29.5 mm
08:02 PM 38.7°F3.7°C 36.9°F2.7°C 93% 6.0 mph N9.7 kmh N 2.9 mph4.7 kmh 30.13 in1020.3 mb - 0.06 in1.5 mm 1.17 in29.7 mm
08:07 PM 38.7°F3.7°C 36.9°F2.7°C 93% 4.9 mph NW7.9 kmh NW 8.1 mph13.0 kmh 30.14 in1020.7 mb - 0.06 in1.5 mm 1.17 in29.7 mm
08:12 PM 38.7°F3.7°C 36.9°F2.7°C 93% 4.0 mph W6.4 kmh W 4.0 mph6.4 kmh 30.14 in1020.7 mb - 0.06 in1.5 mm 1.17 in29.7 mm
08:17 PM 38.7°F3.7°C 36.9°F2.7°C 93% 4.9 mph N7.9 kmh N 4.9 mph7.9 kmh 30.14 in1020.7 mb - 0.05 in1.3 mm 1.17 in29.7 mm
08:22 PM 38.7°F3.7°C 36.9°F2.7°C 93% 4.0 mph NW6.4 kmh NW -- 30.14 in1020.7 mb - 0.05 in1.3 mm 1.18 in30.0 mm
08:27 PM 38.7°F3.7°C 36.5°F2.5°C 92% 4.0 mph NW6.4 kmh NW 8.1 mph13.0 kmh 30.14 in1020.7 mb - 0.04 in1.0 mm 1.18 in30.0 mm
08:32 PM 38.7°F3.7°C 36.5°F2.5°C 92% 4.9 mph NW7.9 kmh NW 8.1 mph13.0 kmh 30.14 in1020.7 mb - 0.04 in1.0 mm 1.19 in30.2 mm
08:37 PM 38.7°F3.7°C 36.5°F2.5°C 92% 4.9 mph NW7.9 kmh NW 2.0 mph3.2 kmh 30.14 in1020.7 mb - 0.04 in1.0 mm 1.19 in30.2 mm
08:42 PM 38.7°F3.7°C 36.5°F2.5°C 92% 2.9 mph NW4.7 kmh NW 0.9 mph1.4 kmh 30.14 in1020.7 mb - 0.05 in1.3 mm 1.19 in30.2 mm
08:47 PM 38.7°F3.7°C 36.5°F2.5°C 92% 2.0 mph WNW3.2 kmh WNW 2.9 mph4.7 kmh 30.14 in1020.7 mb - 0.05 in1.3 mm 1.20 in30.5 mm
08:52 PM 38.7°F3.7°C 36.5°F2.5°C 92% 4.0 mph NW6.4 kmh NW 0.9 mph1.4 kmh 30.14 in1020.7 mb - 0.04 in1.0 mm 1.20 in30.5 mm
08:57 PM 38.7°F3.7°C 36.5°F2.5°C 92% 4.0 mph N6.4 kmh N 4.9 mph7.9 kmh 30.14 in1020.7 mb - 0.04 in1.0 mm 1.20 in30.5 mm
09:02 PM 38.7°F3.7°C 36.5°F2.5°C 92% 4.0 mph WNW6.4 kmh WNW 4.9 mph7.9 kmh 30.15 in1021.0 mb - 0.04 in1.0 mm 1.20 in30.5 mm
09:07 PM 38.5°F3.6°C 36.3°F2.4°C 92% 4.9 mph NW7.9 kmh NW 4.0 mph6.4 kmh 30.15 in1021.0 mb - 0.04 in1.0 mm 1.21 in30.7 mm
09:12 PM 38.5°F3.6°C 36.1°F2.3°C 91% 4.0 mph N6.4 kmh N -- 30.15 in1021.0 mb - 0.04 in1.0 mm 1.21 in30.7 mm
09:17 PM 38.7°F3.7°C 36.3°F2.4°C 91% 2.9 mph E4.7 kmh E -- 30.15 in1021.0 mb - 0.03 in0.8 mm 1.21 in30.7 mm
09:22 PM 38.5°F3.6°C 36.1°F2.3°C 91% 2.0 mph WNW3.2 kmh WNW 2.9 mph4.7 kmh 30.15 in1021.0 mb - 0.00 in0.0 mm 1.21 in30.7 mm
09:27 PM 38.5°F3.6°C 36.3°F2.4°C 92% 2.9 mph N4.7 kmh N -- 30.15 in1021.0 mb - 0.00 in0.0 mm 1.21 in30.7 mm
09:32 PM 38.5°F3.6°C 36.1°F2.3°C 91% 2.0 mph NW3.2 kmh NW 4.0 mph6.4 kmh 30.15 in1021.0 mb - 0.00 in0.0 mm 1.22 in31.0 mm
09:37 PM 38.5°F3.6°C 36.1°F2.3°C 91% 2.9 mph WNW4.7 kmh WNW 4.9 mph7.9 kmh 30.16 in1021.3 mb - 0.00 in0.0 mm 1.22 in31.0 mm
09:42 PM 38.5°F3.6°C 36.1°F2.3°C 91% 2.9 mph NW4.7 kmh NW 0.9 mph1.4 kmh 30.16 in1021.3 mb - 0.00 in0.0 mm 1.22 in31.0 mm
09:47 PM 38.5°F3.6°C 36.1°F2.3°C 91% 2.0 mph NW3.2 kmh NW -- 30.16 in1021.3 mb - 0.00 in0.0 mm 1.22 in31.0 mm
09:52 PM 38.7°F3.7°C 36.3°F2.4°C 91% 0.9 mph NW1.4 kmh NW -- 30.16 in1021.3 mb - 0.00 in0.0 mm 1.22 in31.0 mm
09:57 PM 38.7°F3.7°C 36.3°F2.4°C 91% Calm Calm -- 30.16 in1021.3 mb - 0.00 in0.0 mm 1.22 in31.0 mm
10:02 PM 38.7°F3.7°C 36.0°F2.2°C 90% Calm Calm -- 30.16 in1021.3 mb - 0.00 in0.0 mm 1.22 in31.0 mm
10:07 PM 38.7°F3.7°C 36.0°F2.2°C 90% Calm Calm -- 30.16 in1021.3 mb - 0.00 in0.0 mm 1.22 in31.0 mm
10:12 PM 38.5°F3.6°C 35.8°F2.1°C 90% Calm Calm -- 30.16 in1021.3 mb - 0.00 in0.0 mm 1.22 in31.0 mm
10:17 PM 38.5°F3.6°C 35.8°F2.1°C 90% Calm Calm -- 30.16 in1021.3 mb - 0.00 in0.0 mm 1.22 in31.0 mm
10:22 PM 38.5°F3.6°C 35.8°F2.1°C 90% 0.9 mph N1.4 kmh N 2.0 mph3.2 kmh 30.16 in1021.3 mb - 0.00 in0.0 mm 1.22 in31.0 mm
10:27 PM 38.5°F3.6°C 35.8°F2.1°C 90% 2.0 mph NNW3.2 kmh NNW 2.0 mph3.2 kmh 30.17 in1021.7 mb - 0.00 in0.0 mm 1.22 in31.0 mm
10:32 PM 38.5°F3.6°C 35.8°F2.1°C 90% 2.9 mph NNW4.7 kmh NNW -- 30.17 in1021.7 mb - 0.00 in0.0 mm 1.22 in31.0 mm
10:37 PM 38.5°F3.6°C 35.6°F2.0°C 89% 2.0 mph NW3.2 kmh NW 4.0 mph6.4 kmh 30.16 in1021.3 mb - 0.00 in0.0 mm 1.22 in31.0 mm
10:42 PM 38.5°F3.6°C 35.6°F2.0°C 89% 2.0 mph N3.2 kmh N 0.9 mph1.4 kmh 30.16 in1021.3 mb - 0.00 in0.0 mm 1.22 in31.0 mm
10:47 PM 38.5°F3.6°C 35.6°F2.0°C 89% 2.0 mph N3.2 kmh N -- 30.16 in1021.3 mb - 0.00 in0.0 mm 1.22 in31.0 mm
10:52 PM 38.5°F3.6°C 35.6°F2.0°C 89% 2.0 mph NW3.2 kmh NW -- 30.16 in1021.3 mb - 0.00 in0.0 mm 1.22 in31.0 mm
10:57 PM 38.5°F3.6°C 35.6°F2.0°C 89% 0.9 mph NW1.4 kmh NW -- 30.16 in1021.3 mb - 0.00 in0.0 mm 1.22 in31.0 mm
11:02 PM 38.5°F3.6°C 35.6°F2.0°C 89% 0.9 mph NW1.4 kmh NW -- 30.16 in1021.3 mb - 0.00 in0.0 mm 1.22 in31.0 mm
11:07 PM 38.5°F3.6°C 35.2°F1.8°C 88% 0.9 mph NW1.4 kmh NW -- 30.17 in1021.7 mb - 0.00 in0.0 mm 1.22 in31.0 mm
11:12 PM 38.7°F3.7°C 35.4°F1.9°C 88% Calm Calm -- 30.17 in1021.7 mb - 0.00 in0.0 mm 1.22 in31.0 mm
11:17 PM 38.5°F3.6°C 35.2°F1.8°C 88% Calm Calm -- 30.17 in1021.7 mb - 0.00 in0.0 mm 1.22 in31.0 mm
11:22 PM 38.5°F3.6°C 35.2°F1.8°C 88% Calm Calm -- 30.17 in1021.7 mb - 0.00 in0.0 mm 1.22 in31.0 mm
11:27 PM 38.5°F3.6°C 35.2°F1.8°C 88% Calm Calm -- 30.17 in1021.7 mb - 0.00 in0.0 mm 1.22 in31.0 mm
11:32 PM 38.5°F3.6°C 35.2°F1.8°C 88% Calm Calm -- 30.17 in1021.7 mb - 0.00 in0.0 mm 1.22 in31.0 mm
11:37 PM 38.5°F3.6°C 35.6°F2.0°C 89% Calm Calm -- 30.17 in1021.7 mb - 0.00 in0.0 mm 1.22 in31.0 mm
11:42 PM 38.5°F3.6°C 35.6°F2.0°C 89% Calm Calm -- 30.17 in1021.7 mb - 0.00 in0.0 mm 1.22 in31.0 mm
11:47 PM 38.5°F3.6°C 35.6°F2.0°C 89% Calm Calm -- 30.17 in1021.7 mb - 0.00 in0.0 mm 1.22 in31.0 mm
11:52 PM 38.3°F3.5°C 35.4°F1.9°C 89% Calm Calm -- 30.17 in1021.7 mb - 0.00 in0.0 mm 1.22 in31.0 mm
11:57 PM 38.3°F3.5°C 35.4°F1.9°C 89% Calm Calm -- 30.17 in1021.7 mb - 0.00 in0.0 mm 1.22 in31.0 mm